Henry E. Rohlsen Airport

Airport
ICAO code: 
TISX
IATA Code: 
STX
Summary
ICAO Region: 
CARSAM
Location: 
Christiansted, US Virgin Islands
Serving: 
St Croix
Elevation: 
74 ft
Coordinates: 
Aerial View: 
17° 41' 58.305" N, 64° 47' 50.893" W
Airport WX: 
Tropical Revolving Storm
Metar
Observation
TISX 260953Z AUTO 03005KT 10SM BKN060 23/21 A3000 RMK AO2 SLP158 T02330206
Station
Christiansted, Henry E. Rohlsen Airport
Date/Time
2022-01-26 09:53:00
Wind direction
30°
Wind speed
05 kts
Lowest cloud amount
broken clouds
Temperature
23.3°C
Dew point
20.6°C
Humidity
84%
Weather condition
n/a

Henry E. Rohlsen Airport is a public airport located 10 km southwest of Christiansted on the island of St. Croix in the United States Virgin Islands.

Climatology

Tropical monsoon climate (Köppen climate classification Am)

Runways

Designator Length Width Surface Rops
10/28 3049 46 ASP Yes/Yes
Airport map: 
Aerial View: 

SKYbrary Partners:

Safety knowledge contributed by: